sensor_id;sensor_type;location;lat;lon;timestamp;P1;durP1;ratioP1;P2;durP2;ratioP2
43998;SDS011;51319;52.162;5.302;2023-07-13T00:01:55;19.58;;;3.40;;
43998;SDS011;51319;52.162;5.302;2023-07-13T00:04:22;11.57;;;2.67;;
43998;SDS011;51319;52.162;5.302;2023-07-13T00:06:55;18.95;;;3.13;;
43998;SDS011;51319;52.162;5.302;2023-07-13T00:09:22;13.95;;;2.92;;
43998;SDS011;51319;52.162;5.302;2023-07-13T00:11:53;17.20;;;3.20;;
43998;SDS011;51319;52.162;5.302;2023-07-13T00:14:22;13.27;;;2.70;;
43998;SDS011;51319;52.162;5.302;2023-07-13T00:16:50;15.38;;;3.13;;
43998;SDS011;51319;52.162;5.302;2023-07-13T00:19:18;16.90;;;3.53;;
43998;SDS011;51319;52.162;5.302;2023-07-13T00:21:45;15.00;;;2.70;;
43998;SDS011;51319;52.162;5.302;2023-07-13T00:24:13;13.68;;;2.72;;
43998;SDS011;51319;52.162;5.302;2023-07-13T00:26:43;18.52;;;3.25;;
43998;SDS011;51319;52.162;5.302;2023-07-13T00:29:13;15.20;;;3.35;;
43998;SDS011;51319;52.162;5.302;2023-07-13T00:31:40;9.25;;;2.50;;
43998;SDS011;51319;52.162;5.302;2023-07-13T00:34:07;15.57;;;3.35;;
43998;SDS011;51319;52.162;5.302;2023-07-13T00:36:34;16.92;;;3.08;;
43998;SDS011;51319;52.162;5.302;2023-07-13T00:39:02;17.90;;;3.00;;
43998;SDS011;51319;52.162;5.302;2023-07-13T00:41:30;16.67;;;2.72;;
43998;SDS011;51319;52.162;5.302;2023-07-13T00:43:57;10.70;;;2.38;;
43998;SDS011;51319;52.162;5.302;2023-07-13T00:46:26;14.48;;;2.53;;
43998;SDS011;51319;52.162;5.302;2023-07-13T00:48:55;14.07;;;2.90;;
43998;SDS011;51319;52.162;5.302;2023-07-13T00:51:31;17.02;;;3.05;;
43998;SDS011;51319;52.162;5.302;2023-07-13T00:54:04;9.15;;;2.15;;
43998;SDS011;51319;52.162;5.302;2023-07-13T00:56:33;12.50;;;2.60;;
43998;SDS011;51319;52.162;5.302;2023-07-13T00:59:01;13.63;;;2.42;;
43998;SDS011;51319;52.162;5.302;2023-07-13T01:01:29;8.82;;;2.42;;
43998;SDS011;51319;52.162;5.302;2023-07-13T01:03:57;13.32;;;2.10;;
43998;SDS011;51319;52.162;5.302;2023-07-13T01:06:24;21.23;;;3.28;;
43998;SDS011;51319;52.162;5.302;2023-07-13T01:08:51;10.15;;;2.60;;
43998;SDS011;51319;52.162;5.302;2023-07-13T01:11:19;8.73;;;2.85;;
43998;SDS011;51319;52.162;5.302;2023-07-13T01:13:48;9.95;;;2.55;;
43998;SDS011;51319;52.162;5.302;2023-07-13T01:16:19;16.25;;;2.60;;
43998;SDS011;51319;52.162;5.302;2023-07-13T01:18:54;14.45;;;3.22;;
43998;SDS011;51319;52.162;5.302;2023-07-13T01:21:24;9.82;;;2.35;;
43998;SDS011;51319;52.162;5.302;2023-07-13T01:23:52;13.30;;;2.53;;
43998;SDS011;51319;52.162;5.302;2023-07-13T01:26:19;12.02;;;2.47;;
43998;SDS011;51319;52.162;5.302;2023-07-13T01:28:47;12.13;;;2.63;;
43998;SDS011;51319;52.162;5.302;2023-07-13T01:31:14;11.02;;;2.65;;
43998;SDS011;51319;52.162;5.302;2023-07-13T01:33:41;9.70;;;2.60;;
43998;SDS011;51319;52.162;5.302;2023-07-13T01:36:08;17.90;;;2.92;;
43998;SDS011;51319;52.162;5.302;2023-07-13T01:38:38;10.82;;;2.97;;
43998;SDS011;51319;52.162;5.302;2023-07-13T01:41:08;8.57;;;2.50;;
43998;SDS011;51319;52.162;5.302;2023-07-13T01:43:35;12.43;;;2.28;;
43998;SDS011;51319;52.162;5.302;2023-07-13T01:46:02;14.98;;;3.10;;
43998;SDS011;51319;52.162;5.302;2023-07-13T01:48:47;14.10;;;2.97;;
43998;SDS011;51319;52.162;5.302;2023-07-13T01:51:15;12.65;;;2.90;;
43998;SDS011;51319;52.162;5.302;2023-07-13T01:53:42;10.20;;;2.65;;
43998;SDS011;51319;52.162;5.302;2023-07-13T01:56:09;15.40;;;2.97;;
43998;SDS011;51319;52.162;5.302;2023-07-13T01:58:37;13.73;;;2.92;;
43998;SDS011;51319;52.162;5.302;2023-07-13T02:01:04;12.05;;;2.55;;
43998;SDS011;51319;52.162;5.302;2023-07-13T02:03:34;9.63;;;3.25;;
43998;SDS011;51319;52.162;5.302;2023-07-13T02:06:04;14.75;;;3.10;;
43998;SDS011;51319;52.162;5.302;2023-07-13T02:08:32;13.13;;;3.00;;
43998;SDS011;51319;52.162;5.302;2023-07-13T02:10:59;14.70;;;3.00;;
43998;SDS011;51319;52.162;5.302;2023-07-13T02:13:26;11.90;;;2.40;;
43998;SDS011;51319;52.162;5.302;2023-07-13T02:15:53;11.93;;;2.45;;
43998;SDS011;51319;52.162;5.302;2023-07-13T02:18:22;14.07;;;3.08;;
43998;SDS011;51319;52.162;5.302;2023-07-13T02:20:49;17.73;;;3.20;;
43998;SDS011;51319;52.162;5.302;2023-07-13T02:23:16;19.23;;;3.40;;
43998;SDS011;51319;52.162;5.302;2023-07-13T02:25:43;14.95;;;3.33;;
43998;SDS011;51319;52.162;5.302;2023-07-13T02:28:11;16.98;;;3.08;;
43998;SDS011;51319;52.162;5.302;2023-07-13T02:30:38;23.15;;;2.88;;
43998;SDS011;51319;52.162;5.302;2023-07-13T02:33:05;14.15;;;3.28;;
43998;SDS011;51319;52.162;5.302;2023-07-13T02:35:32;14.02;;;3.05;;
43998;SDS011;51319;52.162;5.302;2023-07-13T02:38:00;21.17;;;3.33;;
43998;SDS011;51319;52.162;5.302;2023-07-13T02:40:27;18.27;;;2.97;;
43998;SDS011;51319;52.162;5.302;2023-07-13T02:42:54;14.52;;;3.33;;
43998;SDS011;51319;52.162;5.302;2023-07-13T02:45:21;12.00;;;2.65;;
43998;SDS011;51319;52.162;5.302;2023-07-13T02:47:48;14.40;;;2.92;;
43998;SDS011;51319;52.162;5.302;2023-07-13T02:50:15;13.07;;;3.00;;
43998;SDS011;51319;52.162;5.302;2023-07-13T02:52:42;15.45;;;3.10;;
43998;SDS011;51319;52.162;5.302;2023-07-13T02:55:09;12.57;;;2.83;;
43998;SDS011;51319;52.162;5.302;2023-07-13T02:57:37;27.13;;;4.00;;
43998;SDS011;51319;52.162;5.302;2023-07-13T03:00:04;15.77;;;3.80;;
43998;SDS011;51319;52.162;5.302;2023-07-13T03:02:32;17.45;;;3.97;;
43998;SDS011;51319;52.162;5.302;2023-07-13T03:05:00;19.73;;;4.22;;
43998;SDS011;51319;52.162;5.302;2023-07-13T03:07:30;13.90;;;2.78;;
43998;SDS011;51319;52.162;5.302;2023-07-13T03:09:57;15.70;;;3.80;;
43998;SDS011;51319;52.162;5.302;2023-07-13T03:12:26;20.77;;;3.30;;
43998;SDS011;51319;52.162;5.302;2023-07-13T03:14:53;14.68;;;3.28;;
43998;SDS011;51319;52.162;5.302;2023-07-13T03:17:20;14.02;;;3.70;;
43998;SDS011;51319;52.162;5.302;2023-07-13T03:19:48;17.50;;;3.95;;
43998;SDS011;51319;52.162;5.302;2023-07-13T03:22:16;14.80;;;3.58;;
43998;SDS011;51319;52.162;5.302;2023-07-13T03:24:44;19.98;;;3.63;;
43998;SDS011;51319;52.162;5.302;2023-07-13T03:27:15;15.77;;;3.47;;
43998;SDS011;51319;52.162;5.302;2023-07-13T03:29:43;12.93;;;3.45;;
43998;SDS011;51319;52.162;5.302;2023-07-13T03:32:11;20.70;;;3.55;;
43998;SDS011;51319;52.162;5.302;2023-07-13T03:34:38;17.35;;;4.15;;
43998;SDS011;51319;52.162;5.302;2023-07-13T03:37:05;19.45;;;3.47;;
43998;SDS011;51319;52.162;5.302;2023-07-13T03:39:32;17.73;;;3.60;;
43998;SDS011;51319;52.162;5.302;2023-07-13T03:41:59;17.77;;;3.63;;
43998;SDS011;51319;52.162;5.302;2023-07-13T03:44:26;14.43;;;4.55;;
43998;SDS011;51319;52.162;5.302;2023-07-13T03:46:56;21.55;;;4.00;;
43998;SDS011;51319;52.162;5.302;2023-07-13T03:49:24;21.80;;;3.55;;
43998;SDS011;51319;52.162;5.302;2023-07-13T03:51:52;19.55;;;3.65;;
43998;SDS011;51319;52.162;5.302;2023-07-13T03:54:19;19.20;;;3.58;;
43998;SDS011;51319;52.162;5.302;2023-07-13T03:56:46;15.13;;;3.08;;
43998;SDS011;51319;52.162;5.302;2023-07-13T03:59:13;19.25;;;3.60;;
43998;SDS011;51319;52.162;5.302;2023-07-13T04:01:40;13.00;;;3.10;;
43998;SDS011;51319;52.162;5.302;2023-07-13T04:04:07;15.30;;;3.28;;
43998;SDS011;51319;52.162;5.302;2023-07-13T04:06:35;17.23;;;3.05;;
43998;SDS011;51319;52.162;5.302;2023-07-13T04:09:02;14.85;;;3.35;;
43998;SDS011;51319;52.162;5.302;2023-07-13T04:11:32;13.70;;;3.53;;
43998;SDS011;51319;52.162;5.302;2023-07-13T04:14:00;17.10;;;3.63;;
43998;SDS011;51319;52.162;5.302;2023-07-13T04:16:27;16.13;;;3.35;;
43998;SDS011;51319;52.162;5.302;2023-07-13T04:18:55;20.55;;;3.78;;
43998;SDS011;51319;52.162;5.302;2023-07-13T04:21:27;19.10;;;3.67;;
43998;SDS011;51319;52.162;5.302;2023-07-13T04:23:56;19.25;;;4.13;;
43998;SDS011;51319;52.162;5.302;2023-07-13T04:26:24;19.25;;;4.72;;
43998;SDS011;51319;52.162;5.302;2023-07-13T04:28:52;18.73;;;3.85;;
43998;SDS011;51319;52.162;5.302;2023-07-13T04:31:19;24.65;;;4.50;;
43998;SDS011;51319;52.162;5.302;2023-07-13T04:33:47;18.42;;;3.50;;
43998;SDS011;51319;52.162;5.302;2023-07-13T04:36:15;20.88;;;4.00;;
43998;SDS011;51319;52.162;5.302;2023-07-13T04:38:43;17.02;;;4.22;;
43998;SDS011;51319;52.162;5.302;2023-07-13T04:41:10;21.75;;;4.78;;
43998;SDS011;51319;52.162;5.302;2023-07-13T04:43:39;12.02;;;4.00;;
43998;SDS011;51319;52.162;5.302;2023-07-13T04:46:07;24.83;;;4.22;;
43998;SDS011;51319;52.162;5.302;2023-07-13T04:48:37;23.15;;;4.68;;
43998;SDS011;51319;52.162;5.302;2023-07-13T04:51:04;18.13;;;3.95;;
43998;SDS011;51319;52.162;5.302;2023-07-13T04:53:32;20.38;;;4.75;;
43998;SDS011;51319;52.162;5.302;2023-07-13T04:56:01;17.67;;;4.40;;
43998;SDS011;51319;52.162;5.302;2023-07-13T04:58:29;16.17;;;3.65;;
43998;SDS011;51319;52.162;5.302;2023-07-13T05:00:59;18.30;;;4.55;;
43998;SDS011;51319;52.162;5.302;2023-07-13T05:03:30;18.65;;;5.22;;
43998;SDS011;51319;52.162;5.302;2023-07-13T05:05:58;20.60;;;4.85;;
43998;SDS011;51319;52.162;5.302;2023-07-13T05:08:27;19.70;;;4.97;;
43998;SDS011;51319;52.162;5.302;2023-07-13T05:10:54;23.17;;;5.18;;
43998;SDS011;51319;52.162;5.302;2023-07-13T05:13:21;20.65;;;5.22;;
43998;SDS011;51319;52.162;5.302;2023-07-13T05:15:55;18.65;;;5.38;;
43998;SDS011;51319;52.162;5.302;2023-07-13T05:18:29;17.92;;;4.97;;
43998;SDS011;51319;52.162;5.302;2023-07-13T05:20:57;15.20;;;4.97;;
43998;SDS011;51319;52.162;5.302;2023-07-13T05:23:35;16.17;;;5.18;;
43998;SDS011;51319;52.162;5.302;2023-07-13T05:26:03;19.70;;;5.25;;
43998;SDS011;51319;52.162;5.302;2023-07-13T05:28:35;27.10;;;5.90;;
43998;SDS011;51319;52.162;5.302;2023-07-13T05:31:02;20.55;;;5.40;;
43998;SDS011;51319;52.162;5.302;2023-07-13T05:33:30;22.45;;;6.07;;
43998;SDS011;51319;52.162;5.302;2023-07-13T05:35:57;18.30;;;5.38;;
43998;SDS011;51319;52.162;5.302;2023-07-13T05:38:27;21.88;;;5.53;;
43998;SDS011;51319;52.162;5.302;2023-07-13T05:40:55;20.25;;;4.97;;
43998;SDS011;51319;52.162;5.302;2023-07-13T05:43:22;22.75;;;5.70;;
43998;SDS011;51319;52.162;5.302;2023-07-13T05:45:54;21.67;;;6.07;;
43998;SDS011;51319;52.162;5.302;2023-07-13T05:48:22;28.50;;;6.38;;
43998;SDS011;51319;52.162;5.302;2023-07-13T05:50:49;18.85;;;5.80;;
43998;SDS011;51319;52.162;5.302;2023-07-13T05:53:16;19.92;;;5.95;;
43998;SDS011;51319;52.162;5.302;2023-07-13T05:55:47;18.75;;;5.53;;
43998;SDS011;51319;52.162;5.302;2023-07-13T05:58:16;26.45;;;6.05;;
43998;SDS011;51319;52.162;5.302;2023-07-13T06:00:44;21.13;;;5.55;;
43998;SDS011;51319;52.162;5.302;2023-07-13T06:03:12;28.40;;;6.88;;
43998;SDS011;51319;52.162;5.302;2023-07-13T06:05:39;21.05;;;7.18;;
43998;SDS011;51319;52.162;5.302;2023-07-13T06:08:07;23.73;;;7.28;;
43998;SDS011;51319;52.162;5.302;2023-07-13T06:10:34;22.52;;;6.45;;
43998;SDS011;51319;52.162;5.302;2023-07-13T06:13:02;21.30;;;6.75;;
43998;SDS011;51319;52.162;5.302;2023-07-13T06:15:29;24.60;;;6.82;;
43998;SDS011;51319;52.162;5.302;2023-07-13T06:17:56;25.40;;;6.65;;
43998;SDS011;51319;52.162;5.302;2023-07-13T06:20:23;22.52;;;6.10;;
43998;SDS011;51319;52.162;5.302;2023-07-13T06:22:50;25.50;;;6.35;;
43998;SDS011;51319;52.162;5.302;2023-07-13T06:25:17;21.08;;;5.30;;
43998;SDS011;51319;52.162;5.302;2023-07-13T06:27:44;21.67;;;5.95;;
43998;SDS011;51319;52.162;5.302;2023-07-13T06:30:11;23.45;;;5.75;;
43998;SDS011;51319;52.162;5.302;2023-07-13T06:32:38;22.25;;;6.25;;
43998;SDS011;51319;52.162;5.302;2023-07-13T06:35:07;27.02;;;6.55;;
43998;SDS011;51319;52.162;5.302;2023-07-13T06:37:34;21.33;;;5.70;;
43998;SDS011;51319;52.162;5.302;2023-07-13T06:40:01;23.83;;;5.57;;
43998;SDS011;51319;52.162;5.302;2023-07-13T06:42:28;20.35;;;5.03;;
43998;SDS011;51319;52.162;5.302;2023-07-13T06:44:54;25.98;;;5.68;;
43998;SDS011;51319;52.162;5.302;2023-07-13T06:47:21;17.00;;;4.93;;
43998;SDS011;51319;52.162;5.302;2023-07-13T06:49:48;16.38;;;4.57;;
43998;SDS011;51319;52.162;5.302;2023-07-13T06:52:15;21.80;;;5.20;;
43998;SDS011;51319;52.162;5.302;2023-07-13T06:54:42;21.42;;;5.68;;
43998;SDS011;51319;52.162;5.302;2023-07-13T06:57:09;20.60;;;6.15;;
43998;SDS011;51319;52.162;5.302;2023-07-13T06:59:36;16.65;;;5.55;;
43998;SDS011;51319;52.162;5.302;2023-07-13T07:02:04;21.85;;;6.30;;
43998;SDS011;51319;52.162;5.302;2023-07-13T07:04:31;19.98;;;6.47;;
43998;SDS011;51319;52.162;5.302;2023-07-13T07:06:58;19.52;;;6.10;;
43998;SDS011;51319;52.162;5.302;2023-07-13T07:09:25;19.38;;;6.65;;
43998;SDS011;51319;52.162;5.302;2023-07-13T07:11:52;17.67;;;6.25;;
43998;SDS011;51319;52.162;5.302;2023-07-13T07:14:29;20.13;;;6.40;;
43998;SDS011;51319;52.162;5.302;2023-07-13T07:16:57;24.48;;;7.43;;
43998;SDS011;51319;52.162;5.302;2023-07-13T07:19:25;19.27;;;6.70;;
43998;SDS011;51319;52.162;5.302;2023-07-13T07:21:53;23.52;;;8.02;;
43998;SDS011;51319;52.162;5.302;2023-07-13T07:24:20;23.08;;;7.53;;
43998;SDS011;51319;52.162;5.302;2023-07-13T07:26:47;16.42;;;6.68;;
43998;SDS011;51319;52.162;5.302;2023-07-13T07:29:17;19.15;;;6.90;;
43998;SDS011;51319;52.162;5.302;2023-07-13T07:31:47;20.63;;;7.07;;
43998;SDS011;51319;52.162;5.302;2023-07-13T07:34:28;13.98;;;6.22;;
43998;SDS011;51319;52.162;5.302;2023-07-13T07:36:58;23.60;;;6.43;;
43998;SDS011;51319;52.162;5.302;2023-07-13T07:39:30;20.55;;;6.25;;
43998;SDS011;51319;52.162;5.302;2023-07-13T07:41:57;21.10;;;6.20;;
43998;SDS011;51319;52.162;5.302;2023-07-13T07:44:24;17.98;;;6.45;;
43998;SDS011;51319;52.162;5.302;2023-07-13T07:46:53;19.40;;;6.45;;
43998;SDS011;51319;52.162;5.302;2023-07-13T07:49:20;21.95;;;6.85;;
43998;SDS011;51319;52.162;5.302;2023-07-13T07:51:47;19.30;;;6.53;;
43998;SDS011;51319;52.162;5.302;2023-07-13T07:54:14;23.77;;;7.20;;
43998;SDS011;51319;52.162;5.302;2023-07-13T07:57:02;18.58;;;5.47;;
43998;SDS011;51319;52.162;5.302;2023-07-13T07:59:31;23.42;;;6.20;;
43998;SDS011;51319;52.162;5.302;2023-07-13T08:02:18;19.92;;;5.40;;
43998;SDS011;51319;52.162;5.302;2023-07-13T08:04:48;15.43;;;5.20;;
43998;SDS011;51319;52.162;5.302;2023-07-13T08:07:18;16.45;;;4.95;;
43998;SDS011;51319;52.162;5.302;2023-07-13T08:09:45;21.58;;;5.75;;
43998;SDS011;51319;52.162;5.302;2023-07-13T08:12:13;17.00;;;5.03;;
43998;SDS011;51319;52.162;5.302;2023-07-13T08:14:43;14.52;;;4.65;;
43998;SDS011;51319;52.162;5.302;2023-07-13T08:17:19;14.50;;;4.13;;
43998;SDS011;51319;52.162;5.302;2023-07-13T08:19:46;11.88;;;3.75;;
43998;SDS011;51319;52.162;5.302;2023-07-13T08:22:14;14.40;;;4.00;;
43998;SDS011;51319;52.162;5.302;2023-07-13T08:24:41;16.67;;;4.55;;
43998;SDS011;51319;52.162;5.302;2023-07-13T08:27:11;14.50;;;3.83;;
43998;SDS011;51319;52.162;5.302;2023-07-13T08:29:38;11.75;;;4.25;;
43998;SDS011;51319;52.162;5.302;2023-07-13T08:32:11;17.60;;;4.53;;
43998;SDS011;51319;52.162;5.302;2023-07-13T08:34:39;16.73;;;4.70;;
43998;SDS011;51319;52.162;5.302;2023-07-13T08:37:06;13.48;;;3.88;;
43998;SDS011;51319;52.162;5.302;2023-07-13T08:39:33;10.30;;;4.15;;
43998;SDS011;51319;52.162;5.302;2023-07-13T08:42:05;11.05;;;4.05;;
43998;SDS011;51319;52.162;5.302;2023-07-13T08:47:41;9.18;;;2.08;;
43998;SDS011;51319;52.162;5.302;2023-07-13T08:50:23;6.43;;;2.10;;
43998;SDS011;51319;52.162;5.302;2023-07-13T08:52:53;5.78;;;2.10;;
43998;SDS011;51319;52.162;5.302;2023-07-13T08:55:23;8.50;;;2.08;;
43998;SDS011;51319;52.162;5.302;2023-07-13T08:58:14;5.07;;;1.95;;
43998;SDS011;51319;52.162;5.302;2023-07-13T09:03:31;5.20;;;1.98;;
43998;SDS011;51319;52.162;5.302;2023-07-13T09:06:33;10.45;;;2.42;;
43998;SDS011;51319;52.162;5.302;2023-07-13T09:12:01;5.70;;;1.95;;
43998;SDS011;51319;52.162;5.302;2023-07-13T09:17:12;5.07;;;1.98;;
43998;SDS011;51319;52.162;5.302;2023-07-13T09:20:00;4.50;;;1.90;;
43998;SDS011;51319;52.162;5.302;2023-07-13T09:22:32;4.70;;;1.90;;
43998;SDS011;51319;52.162;5.302;2023-07-13T09:27:39;7.70;;;2.42;;
43998;SDS011;51319;52.162;5.302;2023-07-13T09:32:42;9.27;;;2.22;;
43998;SDS011;51319;52.162;5.302;2023-07-13T09:35:16;4.22;;;2.17;;
43998;SDS011;51319;52.162;5.302;2023-07-13T09:37:46;7.68;;;2.20;;
43998;SDS011;51319;52.162;5.302;2023-07-13T09:40:20;8.30;;;2.78;;
43998;SDS011;51319;52.162;5.302;2023-07-13T09:42:53;13.52;;;3.60;;
43998;SDS011;51319;52.162;5.302;2023-07-13T09:45:28;11.10;;;3.75;;
43998;SDS011;51319;52.162;5.302;2023-07-13T09:47:59;6.43;;;2.67;;
43998;SDS011;51319;52.162;5.302;2023-07-13T09:50:31;5.10;;;2.05;;
43998;SDS011;51319;52.162;5.302;2023-07-13T09:53:00;7.45;;;2.63;;
43998;SDS011;51319;52.162;5.302;2023-07-13T09:55:34;6.60;;;2.03;;
43998;SDS011;51319;52.162;5.302;2023-07-13T09:58:08;7.13;;;1.83;;
43998;SDS011;51319;52.162;5.302;2023-07-13T10:00:57;5.82;;;1.63;;
43998;SDS011;51319;52.162;5.302;2023-07-13T10:03:35;3.95;;;1.83;;
43998;SDS011;51319;52.162;5.302;2023-07-13T10:06:15;5.63;;;1.70;;
43998;SDS011;51319;52.162;5.302;2023-07-13T10:08:47;7.43;;;1.77;;
43998;SDS011;51319;52.162;5.302;2023-07-13T10:11:19;3.83;;;1.90;;
43998;SDS011;51319;52.162;5.302;2023-07-13T10:13:53;4.80;;;1.98;;
43998;SDS011;51319;52.162;5.302;2023-07-13T10:16:23;7.13;;;2.28;;
43998;SDS011;51319;52.162;5.302;2023-07-13T10:18:56;4.88;;;2.10;;
43998;SDS011;51319;52.162;5.302;2023-07-13T10:21:27;5.43;;;1.88;;
43998;SDS011;51319;52.162;5.302;2023-07-13T10:24:14;6.95;;;2.33;;
43998;SDS011;51319;52.162;5.302;2023-07-13T10:26:52;4.80;;;2.22;;
43998;SDS011;51319;52.162;5.302;2023-07-13T10:29:25;6.32;;;2.38;;
43998;SDS011;51319;52.162;5.302;2023-07-13T10:31:55;8.25;;;2.55;;
43998;SDS011;51319;52.162;5.302;2023-07-13T10:34:23;4.63;;;2.08;;
43998;SDS011;51319;52.162;5.302;2023-07-13T10:36:51;4.15;;;1.95;;
43998;SDS011;51319;52.162;5.302;2023-07-13T10:39:19;7.45;;;2.47;;
43998;SDS011;51319;52.162;5.302;2023-07-13T10:41:51;7.95;;;2.80;;
43998;SDS011;51319;52.162;5.302;2023-07-13T10:44:29;8.13;;;2.47;;
43998;SDS011;51319;52.162;5.302;2023-07-13T10:47:01;5.38;;;2.47;;
43998;SDS011;51319;52.162;5.302;2023-07-13T10:49:32;7.90;;;2.60;;
43998;SDS011;51319;52.162;5.302;2023-07-13T10:52:02;7.13;;;2.65;;
43998;SDS011;51319;52.162;5.302;2023-07-13T10:57:08;6.50;;;2.40;;
43998;SDS011;51319;52.162;5.302;2023-07-13T11:02:42;8.98;;;2.97;;
43998;SDS011;51319;52.162;5.302;2023-07-13T11:08:02;9.95;;;3.25;;
43998;SDS011;51319;52.162;5.302;2023-07-13T11:10:47;11.27;;;2.85;;
43998;SDS011;51319;52.162;5.302;2023-07-13T11:13:37;7.90;;;2.97;;
43998;SDS011;51319;52.162;5.302;2023-07-13T11:16:13;6.15;;;2.38;;
43998;SDS011;51319;52.162;5.302;2023-07-13T11:18:51;7.80;;;2.70;;
43998;SDS011;51319;52.162;5.302;2023-07-13T11:21:20;6.75;;;2.50;;
43998;SDS011;51319;52.162;5.302;2023-07-13T11:26:43;4.90;;;2.03;;
43998;SDS011;51319;52.162;5.302;2023-07-13T11:29:33;6.13;;;2.70;;
43998;SDS011;51319;52.162;5.302;2023-07-13T11:32:22;6.85;;;2.72;;
43998;SDS011;51319;52.162;5.302;2023-07-13T11:34:53;4.85;;;2.53;;
43998;SDS011;51319;52.162;5.302;2023-07-13T11:37:21;6.28;;;2.22;;
43998;SDS011;51319;52.162;5.302;2023-07-13T11:39:50;6.28;;;2.10;;
43998;SDS011;51319;52.162;5.302;2023-07-13T11:42:18;6.90;;;2.28;;
43998;SDS011;51319;52.162;5.302;2023-07-13T11:44:48;8.35;;;2.78;;
43998;SDS011;51319;52.162;5.302;2023-07-13T11:47:34;7.25;;;2.20;;
43998;SDS011;51319;52.162;5.302;2023-07-13T11:50:16;5.30;;;1.80;;
43998;SDS011;51319;52.162;5.302;2023-07-13T11:52:46;7.57;;;2.60;;
43998;SDS011;51319;52.162;5.302;2023-07-13T11:55:17;6.88;;;2.38;;
43998;SDS011;51319;52.162;5.302;2023-07-13T11:57:47;6.05;;;2.28;;
43998;SDS011;51319;52.162;5.302;2023-07-13T12:00:18;9.10;;;3.05;;
43998;SDS011;51319;52.162;5.302;2023-07-13T12:02:49;8.50;;;2.15;;
43998;SDS011;51319;52.162;5.302;2023-07-13T12:05:18;8.27;;;2.65;;
43998;SDS011;51319;52.162;5.302;2023-07-13T12:07:49;8.77;;;2.38;;
43998;SDS011;51319;52.162;5.302;2023-07-13T12:10:18;7.80;;;2.42;;
43998;SDS011;51319;52.162;5.302;2023-07-13T12:15:21;5.88;;;2.10;;
43998;SDS011;51319;52.162;5.302;2023-07-13T12:17:49;7.85;;;2.05;;
43998;SDS011;51319;52.162;5.302;2023-07-13T12:20:21;7.45;;;2.63;;
43998;SDS011;51319;52.162;5.302;2023-07-13T12:22:52;5.70;;;1.98;;
43998;SDS011;51319;52.162;5.302;2023-07-13T12:25:20;7.78;;;2.22;;
43998;SDS011;51319;52.162;5.302;2023-07-13T12:27:49;7.32;;;2.15;;
43998;SDS011;51319;52.162;5.302;2023-07-13T12:30:30;5.00;;;2.30;;
43998;SDS011;51319;52.162;5.302;2023-07-13T12:33:12;9.85;;;2.35;;
43998;SDS011;51319;52.162;5.302;2023-07-13T12:35:50;5.10;;;2.50;;
43998;SDS011;51319;52.162;5.302;2023-07-13T12:40:51;8.45;;;1.90;;
43998;SDS011;51319;52.162;5.302;2023-07-13T12:43:22;6.43;;;2.10;;
43998;SDS011;51319;52.162;5.302;2023-07-13T12:48:28;12.23;;;2.78;;
43998;SDS011;51319;52.162;5.302;2023-07-13T12:51:13;4.70;;;1.83;;
43998;SDS011;51319;52.162;5.302;2023-07-13T12:53:49;4.10;;;1.55;;
43998;SDS011;51319;52.162;5.302;2023-07-13T12:56:23;5.63;;;2.08;;
43998;SDS011;51319;52.162;5.302;2023-07-13T12:58:57;6.95;;;1.75;;
43998;SDS011;51319;52.162;5.302;2023-07-13T13:01:28;4.63;;;1.67;;
43998;SDS011;51319;52.162;5.302;2023-07-13T13:04:00;6.90;;;1.92;;
43998;SDS011;51319;52.162;5.302;2023-07-13T13:06:30;8.02;;;2.22;;
43998;SDS011;51319;52.162;5.302;2023-07-13T13:08:58;7.35;;;1.85;;
43998;SDS011;51319;52.162;5.302;2023-07-13T13:11:27;4.70;;;2.00;;
43998;SDS011;51319;52.162;5.302;2023-07-13T13:13:55;7.63;;;2.20;;
43998;SDS011;51319;52.162;5.302;2023-07-13T13:16:32;5.80;;;2.05;;
43998;SDS011;51319;52.162;5.302;2023-07-13T13:21:50;9.20;;;2.45;;
43998;SDS011;51319;52.162;5.302;2023-07-13T13:24:20;7.38;;;1.80;;
43998;SDS011;51319;52.162;5.302;2023-07-13T13:26:49;6.57;;;2.03;;
43998;SDS011;51319;52.162;5.302;2023-07-13T13:29:19;4.45;;;1.80;;
43998;SDS011;51319;52.162;5.302;2023-07-13T13:31:50;7.35;;;2.17;;
43998;SDS011;51319;52.162;5.302;2023-07-13T13:34:19;6.28;;;1.90;;
43998;SDS011;51319;52.162;5.302;2023-07-13T13:36:49;10.50;;;2.80;;
43998;SDS011;51319;52.162;5.302;2023-07-13T13:39:22;7.47;;;1.95;;
43998;SDS011;51319;52.162;5.302;2023-07-13T13:41:50;8.95;;;2.28;;
43998;SDS011;51319;52.162;5.302;2023-07-13T13:44:18;5.25;;;2.20;;
43998;SDS011;51319;52.162;5.302;2023-07-13T13:46:48;6.30;;;2.30;;
43998;SDS011;51319;52.162;5.302;2023-07-13T13:51:47;10.43;;;2.05;;
43998;SDS011;51319;52.162;5.302;2023-07-13T13:54:15;11.65;;;2.28;;
43998;SDS011;51319;52.162;5.302;2023-07-13T13:56:44;8.05;;;2.47;;
43998;SDS011;51319;52.162;5.302;2023-07-13T13:59:13;5.97;;;2.00;;
43998;SDS011;51319;52.162;5.302;2023-07-13T14:01:42;5.38;;;2.05;;
43998;SDS011;51319;52.162;5.302;2023-07-13T14:04:21;4.70;;;2.23;;
43998;SDS011;51319;52.162;5.302;2023-07-13T14:06:48;4.40;;;2.10;;
43998;SDS011;51319;52.162;5.302;2023-07-13T14:09:17;4.13;;;1.98;;
43998;SDS011;51319;52.162;5.302;2023-07-13T14:11:46;5.88;;;1.90;;
43998;SDS011;51319;52.162;5.302;2023-07-13T14:14:17;6.10;;;2.20;;
43998;SDS011;51319;52.162;5.302;2023-07-13T14:16:49;7.78;;;4.03;;
43998;SDS011;51319;52.162;5.302;2023-07-13T14:19:20;7.18;;;3.33;;
43998;SDS011;51319;52.162;5.302;2023-07-13T14:21:48;10.55;;;5.45;;
43998;SDS011;51319;52.162;5.302;2023-07-13T14:24:16;15.55;;;7.60;;
43998;SDS011;51319;52.162;5.302;2023-07-13T14:26:45;13.30;;;2.50;;
43998;SDS011;51319;52.162;5.302;2023-07-13T14:29:14;4.13;;;1.52;;
43998;SDS011;51319;52.162;5.302;2023-07-13T14:31:48;5.20;;;1.98;;
43998;SDS011;51319;52.162;5.302;2023-07-13T14:34:17;7.90;;;2.13;;
43998;SDS011;51319;52.162;5.302;2023-07-13T14:36:45;6.07;;;2.05;;
43998;SDS011;51319;52.162;5.302;2023-07-13T14:39:20;3.47;;;1.88;;
43998;SDS011;51319;52.162;5.302;2023-07-13T14:41:52;7.45;;;1.98;;
43998;SDS011;51319;52.162;5.302;2023-07-13T14:44:23;5.93;;;1.65;;
43998;SDS011;51319;52.162;5.302;2023-07-13T14:49:21;3.83;;;1.88;;
43998;SDS011;51319;52.162;5.302;2023-07-13T14:52:03;8.55;;;1.77;;
43998;SDS011;51319;52.162;5.302;2023-07-13T14:54:37;3.33;;;1.65;;
43998;SDS011;51319;52.162;5.302;2023-07-13T14:57:10;5.35;;;1.80;;
43998;SDS011;51319;52.162;5.302;2023-07-13T14:59:39;4.57;;;2.22;;
43998;SDS011;51319;52.162;5.302;2023-07-13T15:04:41;4.90;;;1.70;;
43998;SDS011;51319;52.162;5.302;2023-07-13T15:09:41;4.47;;;2.08;;
43998;SDS011;51319;52.162;5.302;2023-07-13T15:12:08;5.78;;;1.80;;
43998;SDS011;51319;52.162;5.302;2023-07-13T15:14:36;4.57;;;1.85;;
43998;SDS011;51319;52.162;5.302;2023-07-13T15:17:03;6.22;;;2.15;;
43998;SDS011;51319;52.162;5.302;2023-07-13T15:19:31;9.20;;;2.13;;
43998;SDS011;51319;52.162;5.302;2023-07-13T15:21:58;4.00;;;2.13;;
43998;SDS011;51319;52.162;5.302;2023-07-13T15:24:25;3.78;;;1.73;;
43998;SDS011;51319;52.162;5.302;2023-07-13T15:26:53;4.53;;;1.48;;
43998;SDS011;51319;52.162;5.302;2023-07-13T15:29:20;4.95;;;1.42;;
43998;SDS011;51319;52.162;5.302;2023-07-13T15:31:47;4.28;;;1.63;;
43998;SDS011;51319;52.162;5.302;2023-07-13T15:34:15;5.78;;;2.05;;
43998;SDS011;51319;52.162;5.302;2023-07-13T15:36:44;5.03;;;2.00;;
43998;SDS011;51319;52.162;5.302;2023-07-13T15:39:15;3.67;;;1.60;;
43998;SDS011;51319;52.162;5.302;2023-07-13T15:41:44;3.65;;;1.52;;
43998;SDS011;51319;52.162;5.302;2023-07-13T15:44:22;3.83;;;1.50;;
43998;SDS011;51319;52.162;5.302;2023-07-13T15:46:57;5.03;;;1.52;;